Terminal Aerodrome Forecast
Issued by NWS

Home | Current Version | Previous Version | Text Only | Print | Product List | Glossary On
Versions: 1 2 3 4 5 6 7 8 9 10 11 12 13 14 15 16 17 18 19 20
000
FTUS41 KCAR 272343
TAFBHB
TAF
KBHB 272343Z 2800/2824 02025G38KT 1SM -SN BLSN OVC008
     FM280600 01016G28KT 2SM -SN BLSN OVC014
     FM281200 35014G23KT 4SM -SHSN BLSN OVC020
     FM281600 35012G20KT P6SM OVC030
     FM281900 34010G18KT P6SM OVC040
      AMD LTD TO CLD VIS AND WIND=

USA.gov is the U.S. government's official web portal to all federal, state and local government web resources and services.